createdAt,value
2022-10-15T00:00:35.548Z,0.60
2022-10-15T00:03:10.796Z,0.52
2022-10-15T00:05:46.497Z,0.55
2022-10-15T00:08:21.713Z,0.90
2022-10-15T00:10:59.334Z,0.90
2022-10-15T00:13:34.755Z,0.90
2022-10-15T00:16:11.631Z,0.77
2022-10-15T00:18:47.234Z,0.77
2022-10-15T00:21:25.142Z,0.70
2022-10-15T00:24:00.625Z,0.93
2022-10-15T00:26:40.729Z,0.80
2022-10-15T00:29:16.225Z,0.60
2022-10-15T00:31:51.295Z,0.70
2022-10-15T00:34:26.865Z,0.50
2022-10-15T00:37:01.921Z,0.70
2022-10-15T00:39:37.149Z,0.65
2022-10-15T00:42:15.783Z,0.70
2022-10-15T00:44:57.078Z,0.88
2022-10-15T00:47:38.703Z,0.68
2022-10-15T00:50:17.399Z,0.90
2022-10-15T00:52:59.689Z,0.80
2022-10-15T00:55:37.389Z,0.80
2022-10-15T00:58:19.672Z,0.80
2022-10-15T01:00:55.216Z,0.70
2022-10-15T01:03:30.868Z,0.70
2022-10-15T01:06:07.515Z,0.90
2022-10-15T01:08:42.958Z,0.73
2022-10-15T01:11:32.810Z,1.00
2022-10-15T01:14:30.342Z,0.80
2022-10-15T01:17:14.023Z,0.98
2022-10-15T01:20:25.712Z,0.57
2022-10-15T01:23:21.219Z,0.55
2022-10-15T01:26:08.378Z,0.80
2022-10-15T01:28:53.001Z,0.65
2022-10-15T01:31:37.818Z,0.80
2022-10-15T01:34:28.532Z,0.70
2022-10-15T01:37:10.170Z,0.80
2022-10-15T01:39:49.006Z,0.65
2022-10-15T01:42:30.338Z,0.60
2022-10-15T01:45:09.951Z,0.60
2022-10-15T01:48:21.379Z,0.68
2022-10-15T01:51:00.695Z,0.70
2022-10-15T01:53:39.230Z,0.60
2022-10-15T01:56:17.326Z,0.55
2022-10-15T01:58:54.248Z,2.60
2022-10-15T02:01:29.795Z,3.70
2022-10-15T02:04:08.120Z,8.10
2022-10-15T02:06:44.986Z,7.10
2022-10-15T02:09:27.230Z,6.40
2022-10-15T02:12:08.165Z,0.80
2022-10-15T02:14:53.831Z,2.50
2022-10-15T02:17:34.725Z,3.97
2022-10-15T02:20:17.808Z,1.05
2022-10-15T02:22:55.103Z,2.30
2022-10-15T02:25:30.970Z,2.45
2022-10-15T02:28:08.497Z,1.50
2022-10-15T02:30:44.288Z,1.25
2022-10-15T02:33:21.502Z,1.63
2022-10-15T02:35:58.321Z,1.35
2022-10-15T02:38:33.275Z,1.30
2022-10-15T02:41:07.932Z,1.10
2022-10-15T02:43:42.755Z,0.63
2022-10-15T02:46:20.182Z,1.17
2022-10-15T02:48:55.099Z,0.70
2022-10-15T02:51:31.689Z,0.80
2022-10-15T02:54:08.430Z,0.95
2022-10-15T02:56:45.883Z,0.70
2022-10-15T02:59:22.044Z,0.95
2022-10-15T03:01:57.206Z,0.90
2022-10-15T03:04:33.043Z,0.80
2022-10-15T03:07:10.182Z,0.70
2022-10-15T03:09:46.608Z,0.60
2022-10-15T03:12:25.123Z,0.90
2022-10-15T03:15:01.763Z,0.50
2022-10-15T03:17:39.336Z,0.60
2022-10-15T03:20:15.593Z,0.60
2022-10-15T03:22:52.959Z,0.70
2022-10-15T03:25:28.191Z,0.80
2022-10-15T03:28:08.837Z,0.70
2022-10-15T03:30:48.782Z,0.90
2022-10-15T03:33:25.490Z,0.65
2022-10-15T03:36:02.914Z,0.60
2022-10-15T03:38:43.664Z,0.70
2022-10-15T03:41:21.526Z,0.80
2022-10-15T03:43:59.011Z,0.95
2022-10-15T03:46:33.793Z,0.70
2022-10-15T03:49:09.803Z,0.90
2022-10-15T03:51:48.539Z,0.90
2022-10-15T03:54:28.389Z,1.00
2022-10-15T03:57:04.628Z,0.70
2022-10-15T04:02:19.593Z,1.08
2022-10-15T04:04:57.372Z,0.60
2022-10-15T04:07:33.060Z,0.55
2022-10-15T04:10:10.991Z,0.70
2022-10-15T04:12:47.764Z,0.70
2022-10-15T04:15:24.694Z,0.70
2022-10-15T04:18:04.416Z,0.80
2022-10-15T04:20:39.954Z,0.80
2022-10-15T04:23:27.018Z,0.88
2022-10-15T04:26:24.725Z,0.77
2022-10-15T04:28:59.942Z,0.90
2022-10-15T04:31:36.082Z,0.80
2022-10-15T04:34:11.434Z,0.60
2022-10-15T04:36:46.876Z,1.05
2022-10-15T04:39:27.194Z,0.90
2022-10-15T04:42:06.323Z,0.80
2022-10-15T04:44:42.194Z,1.02
2022-10-15T04:47:16.387Z,0.80
2022-10-15T04:50:02.260Z,0.70
2022-10-15T04:52:55.174Z,0.90
2022-10-15T04:55:33.367Z,0.90
2022-10-15T04:58:15.173Z,0.90
2022-10-15T05:00:52.186Z,1.10
2022-10-15T05:03:37.399Z,0.80
2022-10-15T05:06:14.843Z,0.80
2022-10-15T05:08:50.731Z,0.93
2022-10-15T05:11:32.943Z,1.23
2022-10-15T05:14:09.849Z,0.80
2022-10-15T05:16:45.355Z,0.80
2022-10-15T05:19:20.296Z,1.25
2022-10-15T05:21:55.966Z,0.85
2022-10-15T05:24:32.909Z,0.98
2022-10-15T05:27:12.439Z,0.95
2022-10-15T05:29:51.701Z,0.77
2022-10-15T05:32:27.129Z,0.80
2022-10-15T05:35:02.263Z,0.75
2022-10-15T05:37:56.661Z,0.80
2022-10-15T05:40:31.969Z,0.88
2022-10-15T05:43:14.767Z,0.90
2022-10-15T05:45:52.916Z,1.33
2022-10-15T05:48:29.907Z,0.90
2022-10-15T05:51:08.202Z,0.88
2022-10-15T05:53:44.989Z,1.05
2022-10-15T05:56:21.818Z,0.90
2022-10-15T05:58:57.298Z,0.90
2022-10-15T06:01:38.232Z,1.17
2022-10-15T06:04:13.698Z,1.23
2022-10-15T06:06:49.797Z,0.95
2022-10-15T06:09:27.175Z,0.90
2022-10-15T06:12:03.896Z,1.00
2022-10-15T06:14:39.295Z,1.00
2022-10-15T06:17:19.584Z,0.90
2022-10-15T06:19:58.574Z,1.10
2022-10-15T06:25:11.742Z,0.95
2022-10-15T06:27:47.377Z,1.27
2022-10-15T06:30:22.902Z,1.00
2022-10-15T06:33:00.672Z,1.00
2022-10-15T06:35:37.044Z,1.10
2022-10-15T06:38:12.223Z,1.20
2022-10-15T06:40:49.532Z,1.00
2022-10-15T06:43:30.993Z,1.00
2022-10-15T06:46:09.061Z,1.00
2022-10-15T06:48:45.555Z,1.10
2022-10-15T06:51:20.982Z,1.00
2022-10-15T06:53:57.912Z,0.77
2022-10-15T06:56:51.605Z,0.90
2022-10-15T06:59:27.322Z,1.00
2022-10-15T07:02:03.241Z,1.10
2022-10-15T07:04:40.178Z,1.27
2022-10-15T07:07:15.434Z,0.82
2022-10-15T07:09:55.154Z,1.30
2022-10-15T07:12:30.406Z,1.35
2022-10-15T07:15:05.647Z,1.02
2022-10-15T07:17:42.331Z,1.25
2022-10-15T07:20:21.992Z,1.05
2022-10-15T07:23:02.501Z,1.00
2022-10-15T07:25:38.594Z,1.20
2022-10-15T07:28:13.796Z,1.15
2022-10-15T07:30:50.417Z,1.15
2022-10-15T07:33:25.618Z,1.20
2022-10-15T07:36:16.628Z,1.00
2022-10-15T07:38:53.266Z,1.20
2022-10-15T07:41:28.655Z,1.15
2022-10-15T07:44:05.453Z,1.92
2022-10-15T07:46:40.455Z,2.17
2022-10-15T07:49:15.888Z,1.38
2022-10-15T07:51:54.863Z,1.50
2022-10-15T07:54:33.920Z,1.40
2022-10-15T07:57:13.370Z,1.13
2022-10-15T07:59:48.110Z,1.00
2022-10-15T08:02:24.848Z,1.13
2022-10-15T08:05:00.290Z,1.17
2022-10-15T08:07:37.985Z,1.20
2022-10-15T08:10:18.378Z,4.57
2022-10-15T08:12:54.467Z,2.63
2022-10-15T08:15:30.033Z,2.60
2022-10-15T08:18:07.299Z,1.88
2022-10-15T08:20:47.272Z,1.88
2022-10-15T08:23:26.055Z,2.38
2022-10-15T08:26:04.149Z,1.33
2022-10-15T08:28:39.985Z,1.40
2022-10-15T08:31:14.987Z,1.10
2022-10-15T08:33:50.605Z,1.20
2022-10-15T08:36:31.195Z,1.48
2022-10-15T08:39:12.653Z,1.65
2022-10-15T08:41:49.724Z,1.40
2022-10-15T08:44:29.010Z,1.30
2022-10-15T08:47:05.047Z,1.30
2022-10-15T08:49:50.244Z,1.40
2022-10-15T08:52:34.402Z,2.73
2022-10-15T08:55:13.440Z,3.42
2022-10-15T08:58:15.769Z,1.80
2022-10-15T09:00:56.764Z,1.83
2022-10-15T09:03:41.306Z,2.40
2022-10-15T09:06:24.933Z,3.40
2022-10-15T09:09:12.354Z,2.10
2022-10-15T09:11:58.993Z,2.10
2022-10-15T09:14:38.969Z,2.08
2022-10-15T09:17:23.825Z,1.73
2022-10-15T09:20:02.236Z,1.90
2022-10-15T09:22:39.244Z,1.10
2022-10-15T09:25:27.595Z,2.93
2022-10-15T09:28:15.129Z,1.70
2022-10-15T09:30:53.951Z,1.67
2022-10-15T09:33:41.282Z,1.20
2022-10-15T09:36:30.738Z,1.40
2022-10-15T09:39:21.364Z,1.45
2022-10-15T09:42:06.749Z,1.17
2022-10-15T09:44:49.148Z,1.55
2022-10-15T09:47:30.817Z,1.30
2022-10-15T09:50:12.540Z,1.40
2022-10-15T09:53:10.115Z,1.30
2022-10-15T09:55:52.200Z,1.30
2022-10-15T09:58:44.500Z,1.20
2022-10-15T10:01:27.435Z,1.20
2022-10-15T10:04:16.997Z,1.48
2022-10-15T10:07:05.092Z,1.70
2022-10-15T10:09:43.667Z,1.25
2022-10-15T10:12:26.175Z,1.33
2022-10-15T10:15:03.795Z,1.20
2022-10-15T10:17:42.325Z,1.30
2022-10-15T10:20:22.173Z,1.10
2022-10-15T10:23:03.470Z,1.00
2022-10-15T10:25:42.607Z,1.20
2022-10-15T10:28:24.340Z,1.05
2022-10-15T10:31:08.000Z,1.10
2022-10-15T10:33:51.779Z,1.10
2022-10-15T10:36:32.672Z,1.25
2022-10-15T10:39:16.957Z,1.10
2022-10-15T10:41:56.431Z,1.30
2022-10-15T10:44:37.522Z,1.20
2022-10-15T10:47:18.467Z,1.67
2022-10-15T10:49:59.039Z,1.45
2022-10-15T10:52:36.078Z,1.48
2022-10-15T10:55:18.341Z,1.20
2022-10-15T10:57:55.919Z,1.33
2022-10-15T11:00:41.648Z,1.23
2022-10-15T11:03:31.608Z,1.40
2022-10-15T11:06:24.356Z,1.30
2022-10-15T11:09:15.348Z,1.25
2022-10-15T11:12:02.618Z,1.58
2022-10-15T11:14:50.854Z,1.63
2022-10-15T11:17:35.643Z,1.40
2022-10-15T11:20:36.786Z,1.23
2022-10-15T11:23:37.941Z,1.60
2022-10-15T11:26:37.135Z,1.30
2022-10-15T11:29:28.909Z,1.58
2022-10-15T11:32:16.788Z,1.52
2022-10-15T11:35:04.881Z,1.60
2022-10-15T11:37:49.812Z,1.37
2022-10-15T11:40:36.351Z,1.30
2022-10-15T11:43:22.615Z,1.35
2022-10-15T11:46:05.886Z,1.30
2022-10-15T11:48:55.643Z,1.58
2022-10-15T11:51:38.853Z,1.20
2022-10-15T11:54:34.233Z,1.20
2022-10-15T11:57:16.848Z,1.30
2022-10-15T11:59:57.751Z,1.60
2022-10-15T12:02:38.312Z,1.58
2022-10-15T12:05:20.216Z,1.58
2022-10-15T12:07:56.066Z,1.50
2022-10-15T12:10:47.234Z,1.10
2022-10-15T12:13:32.202Z,1.30
2022-10-15T12:16:26.380Z,1.85
2022-10-15T12:19:09.334Z,1.52
2022-10-15T12:21:48.127Z,1.27
2022-10-15T12:24:58.036Z,1.75
2022-10-15T12:27:39.828Z,1.35
2022-10-15T12:30:31.503Z,1.48
2022-10-15T12:33:11.560Z,1.50
2022-10-15T12:35:47.823Z,1.67
2022-10-15T12:38:33.977Z,1.58
2022-10-15T12:41:11.593Z,1.55
2022-10-15T12:43:50.334Z,1.50
2022-10-15T12:46:39.748Z,1.80
2022-10-15T12:49:55.005Z,1.20
2022-10-15T12:53:01.220Z,1.57
2022-10-15T12:55:38.314Z,1.13
2022-10-15T12:58:38.325Z,1.60
2022-10-15T13:01:54.555Z,1.15
2022-10-15T13:04:44.692Z,1.40
2022-10-15T13:07:20.400Z,1.60
2022-10-15T13:09:56.095Z,1.48
2022-10-15T13:12:34.724Z,1.75
2022-10-15T13:15:11.133Z,1.35
2022-10-15T13:17:48.834Z,1.73
2022-10-15T13:20:38.768Z,1.42
2022-10-15T13:23:30.005Z,1.60
2022-10-15T13:26:23.810Z,1.45
2022-10-15T13:29:22.809Z,1.65
2022-10-15T13:31:59.607Z,1.40
2022-10-15T13:34:39.052Z,1.40
2022-10-15T13:37:24.513Z,1.60
2022-10-15T13:40:03.078Z,1.45
2022-10-15T13:42:41.985Z,1.70
2022-10-15T13:45:23.458Z,1.58
2022-10-15T13:47:59.002Z,1.63
2022-10-15T13:50:38.419Z,1.50
2022-10-15T13:53:22.639Z,1.80
2022-10-15T13:55:59.615Z,1.42
2022-10-15T13:58:37.708Z,1.38
2022-10-15T14:01:19.212Z,1.35
2022-10-15T14:03:56.655Z,1.70
2022-10-15T14:06:34.717Z,1.77
2022-10-15T14:09:24.591Z,1.48
2022-10-15T14:12:03.358Z,1.52
2022-10-15T14:14:42.884Z,1.50
2022-10-15T14:17:27.217Z,1.50
2022-10-15T14:20:26.444Z,1.40
2022-10-15T14:23:04.346Z,1.38
2022-10-15T14:25:43.479Z,1.60
2022-10-15T14:28:26.059Z,1.60
2022-10-15T14:31:03.019Z,1.80
2022-10-15T14:33:48.754Z,1.60
2022-10-15T14:36:32.327Z,1.50
2022-10-15T14:39:34.206Z,1.40
2022-10-15T14:42:10.763Z,1.60
2022-10-15T14:44:50.465Z,1.83
2022-10-15T14:47:28.503Z,1.60
2022-10-15T14:50:06.333Z,1.63
2022-10-15T14:52:47.679Z,1.42
2022-10-15T14:55:35.088Z,1.90
2022-10-15T14:58:14.908Z,1.40
2022-10-15T15:00:51.763Z,1.83
2022-10-15T15:03:34.381Z,1.40
2022-10-15T15:06:11.884Z,1.40
2022-10-15T15:08:47.401Z,1.70
2022-10-15T15:11:30.100Z,1.75
2022-10-15T15:14:05.614Z,1.48
2022-10-15T15:16:40.847Z,1.40
2022-10-15T15:19:15.939Z,1.52
2022-10-15T15:21:52.929Z,1.45
2022-10-15T15:24:29.231Z,1.50
2022-10-15T15:27:09.308Z,1.65
2022-10-15T15:29:44.712Z,1.80
2022-10-15T15:32:21.194Z,1.70
2022-10-15T15:34:57.517Z,1.42
2022-10-15T15:37:33.967Z,1.50
2022-10-15T15:40:09.340Z,1.40
2022-10-15T15:42:48.375Z,1.70
2022-10-15T15:45:26.787Z,1.40
2022-10-15T15:48:05.243Z,1.60
2022-10-15T15:50:41.264Z,1.60
2022-10-15T15:53:18.261Z,1.58
2022-10-15T15:55:53.476Z,1.40
2022-10-15T15:58:30.452Z,2.00
2022-10-15T16:01:06.212Z,1.23
2022-10-15T16:03:41.253Z,1.45
2022-10-15T16:06:17.366Z,1.40
2022-10-15T16:08:55.148Z,1.40
2022-10-15T16:11:31.246Z,1.55
2022-10-15T16:14:09.546Z,1.40
2022-10-15T16:16:45.491Z,1.40
2022-10-15T16:19:21.270Z,1.27
2022-10-15T16:21:57.872Z,1.38
2022-10-15T16:24:32.870Z,1.40
2022-10-15T16:27:07.990Z,1.50
2022-10-15T16:29:45.197Z,1.40
2022-10-15T16:32:20.257Z,1.35
2022-10-15T16:34:56.035Z,1.35
2022-10-15T16:37:31.096Z,1.60
2022-10-15T16:40:06.426Z,1.30
2022-10-15T16:42:43.316Z,1.52
2022-10-15T16:45:21.961Z,1.70
2022-10-15T16:47:58.292Z,1.70
2022-10-15T16:50:34.443Z,1.25
2022-10-15T16:53:10.436Z,1.60
2022-10-15T16:55:48.933Z,1.92
2022-10-15T16:58:24.165Z,1.73
2022-10-15T17:01:04.261Z,1.70
2022-10-15T17:03:40.875Z,1.77
2022-10-15T17:06:17.139Z,1.95
2022-10-15T17:09:13.087Z,1.80
2022-10-15T17:11:53.501Z,1.70
2022-10-15T17:14:29.043Z,2.00
2022-10-15T17:17:06.773Z,1.70
2022-10-15T17:19:42.141Z,1.80
2022-10-15T17:22:17.518Z,2.00
2022-10-15T17:24:54.642Z,1.60
2022-10-15T17:27:30.103Z,2.08
2022-10-15T17:30:06.375Z,1.90
2022-10-15T17:32:43.308Z,2.22
2022-10-15T17:35:18.522Z,2.13
2022-10-15T17:37:53.733Z,2.30
2022-10-15T17:40:29.277Z,1.75
2022-10-15T17:43:05.404Z,1.85
2022-10-15T17:45:40.452Z,1.80
2022-10-15T17:48:19.545Z,1.90
2022-10-15T17:50:55.086Z,1.83
2022-10-15T17:53:30.185Z,2.03
2022-10-15T17:56:13.918Z,2.00
2022-10-15T17:58:49.904Z,1.85
2022-10-15T18:01:56.840Z,2.05
2022-10-15T18:04:28.691Z,1.92
2022-10-15T18:07:03.904Z,1.90
2022-10-15T18:09:40.992Z,2.20
2022-10-15T18:12:16.344Z,2.13
2022-10-15T18:14:51.597Z,1.90
2022-10-15T18:17:31.215Z,1.73
2022-10-15T18:20:08.579Z,1.85
2022-10-15T18:22:44.051Z,1.90
2022-10-15T18:25:19.143Z,1.75
2022-10-15T18:27:54.848Z,1.65
2022-10-15T18:30:29.912Z,1.88
2022-10-15T18:33:05.122Z,1.73
2022-10-15T18:35:43.571Z,1.67
2022-10-15T18:38:18.958Z,1.55
2022-10-15T18:40:55.432Z,1.90
2022-10-15T18:43:32.278Z,1.88
2022-10-15T18:46:08.444Z,1.60
2022-10-15T18:48:43.889Z,1.73
2022-10-15T18:51:21.779Z,1.80
2022-10-15T18:53:58.556Z,2.40
2022-10-15T18:56:33.699Z,1.75
2022-10-15T18:59:09.204Z,1.60
2022-10-15T19:01:48.562Z,1.40
2022-10-15T19:04:25.024Z,1.60
2022-10-15T19:07:05.193Z,1.50
2022-10-15T19:09:41.110Z,1.70
2022-10-15T19:12:16.795Z,1.50
2022-10-15T19:14:54.235Z,1.60
2022-10-15T19:17:29.773Z,1.73
2022-10-15T19:20:04.822Z,1.63
2022-10-15T19:22:42.355Z,1.40
2022-10-15T19:25:17.417Z,1.90
2022-10-15T19:27:53.756Z,1.75
2022-10-15T19:30:29.694Z,1.73
2022-10-15T19:33:09.682Z,1.77
2022-10-15T19:35:46.164Z,1.73
2022-10-15T19:38:23.430Z,1.70
2022-10-15T19:40:58.883Z,1.83
2022-10-15T19:43:34.219Z,1.50
2022-10-15T19:46:10.669Z,1.80
2022-10-15T19:48:45.700Z,1.50
2022-10-15T19:51:21.177Z,1.50
2022-10-15T19:54:01.703Z,1.80
2022-10-15T19:56:39.813Z,1.55
2022-10-15T19:59:16.270Z,1.90
2022-10-15T20:01:51.534Z,1.70
2022-10-15T20:04:26.944Z,2.60
2022-10-15T20:07:01.969Z,2.80
2022-10-15T20:09:39.171Z,2.83
2022-10-15T20:12:14.782Z,2.65
2022-10-15T20:14:53.624Z,2.20
2022-10-15T20:17:28.876Z,2.45
2022-10-15T20:20:04.342Z,2.58
2022-10-15T20:22:39.384Z,2.30
2022-10-15T20:25:16.998Z,2.10
2022-10-15T20:27:52.153Z,2.42
2022-10-15T20:30:27.250Z,2.55
2022-10-15T20:33:02.438Z,2.55
2022-10-15T20:35:38.771Z,2.17
2022-10-15T20:38:13.982Z,2.10
2022-10-15T20:40:50.949Z,2.10
2022-10-15T20:43:26.194Z,1.90
2022-10-15T20:46:01.211Z,2.00
2022-10-15T20:48:37.351Z,1.60
2022-10-15T20:51:15.170Z,1.65
2022-10-15T20:53:51.083Z,1.50
2022-10-15T20:56:29.218Z,1.20
2022-10-15T20:59:05.559Z,1.65
2022-10-15T21:01:42.185Z,1.52
2022-10-15T21:04:18.066Z,1.15
2022-10-15T21:06:53.307Z,1.40
2022-10-15T21:09:28.850Z,0.93
2022-10-15T21:12:07.499Z,1.25
2022-10-15T21:14:43.759Z,1.00
2022-10-15T21:17:19.503Z,0.98
2022-10-15T21:19:55.001Z,0.85
2022-10-15T21:22:30.262Z,0.80
2022-10-15T21:25:08.139Z,1.00
2022-10-15T21:27:49.263Z,1.02
2022-10-15T21:30:24.432Z,0.90
2022-10-15T21:33:03.868Z,1.20
2022-10-15T21:35:40.494Z,1.00
2022-10-15T21:38:14.917Z,1.08
2022-10-15T21:40:54.403Z,1.00
2022-10-15T21:43:32.985Z,1.20
2022-10-15T21:46:14.481Z,1.20
2022-10-15T21:48:49.655Z,1.00
2022-10-15T21:51:25.455Z,0.90
2022-10-15T21:54:00.118Z,0.90
2022-10-15T21:56:34.786Z,0.90
2022-10-15T21:59:10.936Z,1.17
2022-10-15T22:01:47.201Z,1.27
2022-10-15T22:04:21.643Z,0.82
2022-10-15T22:06:57.395Z,1.17
2022-10-15T22:09:32.329Z,0.98
2022-10-15T22:12:06.589Z,0.90
2022-10-15T22:14:48.115Z,0.88
2022-10-15T22:17:23.514Z,0.90
2022-10-15T22:19:58.336Z,1.10
2022-10-15T22:22:32.585Z,1.00
2022-10-15T22:25:06.768Z,1.10
2022-10-15T22:27:40.967Z,1.08
2022-10-15T22:30:17.828Z,0.90
2022-10-15T22:32:52.370Z,1.05
2022-10-15T22:35:28.933Z,1.20
2022-10-15T22:38:03.428Z,0.90
2022-10-15T22:40:38.310Z,0.75
2022-10-15T22:43:12.841Z,1.08
2022-10-15T22:45:49.321Z,1.00
2022-10-15T22:48:24.173Z,1.00
2022-10-15T22:51:01.053Z,1.00
2022-10-15T22:53:35.810Z,0.90
2022-10-15T22:56:10.845Z,1.00
2022-10-15T22:58:45.706Z,1.08
2022-10-15T23:01:22.663Z,1.20
2022-10-15T23:03:58.024Z,1.17
2022-10-15T23:06:32.201Z,1.05
2022-10-15T23:09:06.703Z,1.00
2022-10-15T23:11:47.448Z,1.10
2022-10-15T23:14:22.175Z,0.95
2022-10-15T23:16:58.424Z,0.90
2022-10-15T23:19:33.734Z,1.13
2022-10-15T23:22:08.092Z,1.00
2022-10-15T23:24:42.639Z,1.13
2022-10-15T23:27:17.270Z,0.93
2022-10-15T23:30:01.785Z,1.20
2022-10-15T23:32:48.643Z,1.00
2022-10-15T23:35:24.118Z,1.00
2022-10-15T23:37:59.319Z,1.25
2022-10-15T23:40:35.771Z,1.13
2022-10-15T23:43:11.196Z,1.30
2022-10-15T23:45:46.507Z,1.13
2022-10-15T23:48:23.997Z,1.10
2022-10-15T23:51:02.493Z,1.17
2022-10-15T23:53:39.256Z,1.30
2022-10-15T23:56:15.660Z,1.20
2022-10-15T23:58:55.068Z,1.25
